»·PEaware :: N105MS KPHX-KABQ

N105MS :: KPHX-KABQ

FLIGHT INFORMATION

Flight Status: Arrived
Operator: Privately registered:
United States
More flights under this callsign
Pilot: Mike T. (22952)
Aircraft: PILATUS PC-12 EAGLE
(PC12)
More flights by this aircraft type
Origin: KPHX Phoenix Sky Harbor Intl
United States
Destination: KABQ Albuquerque Intl Sunport
United States
More flights between these airports :: More routes between these airports
Route: FORPE1 SJN LAVAN3
File this flight plan on PilotEdge
Remarks:
Altitude:
(Current/Filed)
23,000ft
Speed:
(Current/Filed)
230kts
Departed: 26-Aug-21 01:57 PM
Arrived: 26-Aug-21 03:12 PM
Distance/Time
Traveled:
284nm/1:15
Distance/Time
To Go:
Arrived

Flight Plot

Page will automatically refresh every two minutes.

Flight plan parsing failed; only flown route is shown


Map Options




Map Legend


Flown Route
Filed Route
Departure Airport
Arrival Airport
Navaid (VOR, NDB)
Fix

Horizontal Profiles

Position Reports

Time Latitude Longitude Heading Altitude Ground
Speed
26-Aug-21 13:37 33.427090 -112.021666 180 1115ft 0kts
26-Aug-21 13:38 33.427090 -112.021666 180 1115ft 0kts
26-Aug-21 13:39 33.427090 -112.021666 180 1115ft 0kts
26-Aug-21 13:40 33.427090 -112.021666 180 1115ft 0kts
26-Aug-21 13:41 33.427090 -112.021666 180 1115ft 0kts
26-Aug-21 13:42 33.427090 -112.021666 180 1115ft 0kts
26-Aug-21 13:43 33.427090 -112.021666 180 1115ft 0kts
26-Aug-21 13:44 33.427090 -112.021666 180 1115ft 0kts
26-Aug-21 13:45 33.427090 -112.021666 180 1115ft 0kts
26-Aug-21 13:46 33.427090 -112.021666 180 1115ft 0kts
26-Aug-21 13:47 33.427090 -112.021666 180 1115ft 0kts
26-Aug-21 13:48 33.427090 -112.021666 180 1115ft 0kts
26-Aug-21 13:49 33.427090 -112.021666 180 1115ft 0kts
26-Aug-21 13:50 33.427029 -112.021504 94 1115ft 4kts
26-Aug-21 13:51 33.427758 -112.022712 270 1115ft 7kts
26-Aug-21 13:52 33.427764 -112.024961 268 1115ft 9kts
26-Aug-21 13:53 33.427907 -112.026854 325 1111ft 0kts
26-Aug-21 13:54 33.427907 -112.026854 325 1111ft 0kts
26-Aug-21 13:55 33.428038 -112.026924 344 1111ft 4kts
26-Aug-21 13:56 33.428730 -112.012910 90 1270ft 128kts
26-Aug-21 13:57 33.428139 -111.960090 87 3833ft 159kts
26-Aug-21 13:58 33.430155 -111.896509 83 6093ft 192kts
26-Aug-21 13:59 33.452690 -111.831569 63 8041ft 216kts
26-Aug-21 14:00 33.487105 -111.749687 62 8054ft 269kts
26-Aug-21 14:01 33.524585 -111.661193 63 8500ft 264kts
26-Aug-21 14:02 33.551349 -111.586372 71 11347ft 204kts
26-Aug-21 14:03 33.575195 -111.521163 59 13464ft 193kts
26-Aug-21 14:04 33.603294 -111.462073 60 15518ft 180kts
26-Aug-21 14:05 33.631277 -111.404790 61 17208ft 181kts
26-Aug-21 14:06 33.656843 -111.344519 67 18463ft 200kts
26-Aug-21 14:07 33.682795 -111.279108 63 19722ft 210kts
26-Aug-21 14:08 33.707636 -111.212108 67 20941ft 212kts
26-Aug-21 14:09 33.730731 -111.147108 67 22126ft 210kts
26-Aug-21 14:10 33.754034 -111.081709 67 23053ft 218kts
26-Aug-21 14:11 33.780076 -111.008262 67 23107ft 257kts
26-Aug-21 14:12 33.808388 -110.928212 66 23228ft 259kts
26-Aug-21 14:13 33.836713 -110.848211 66 23228ft 261kts
26-Aug-21 14:14 33.866201 -110.764838 68 23228ft 272kts
26-Aug-21 14:15 33.895950 -110.680152 66 23041ft 279kts
26-Aug-21 14:16 33.920138 -110.611261 66 22992ft 269kts
26-Aug-21 14:17 33.948138 -110.531676 67 23242ft 269kts
26-Aug-21 14:18 33.977401 -110.448037 67 23240ft 271kts
26-Aug-21 14:19 34.006550 -110.364538 67 23240ft 270kts
26-Aug-21 14:20 34.035493 -110.281387 68 23238ft 269kts
26-Aug-21 14:21 34.064348 -110.198262 68 23238ft 268kts
26-Aug-21 14:22 34.093043 -110.115393 68 23239ft 268kts
26-Aug-21 14:23 34.121638 -110.032542 68 23236ft 268kts
26-Aug-21 14:24 34.150209 -109.949572 68 23237ft 267kts
26-Aug-21 14:25 34.178705 -109.866610 68 23259ft 267kts
26-Aug-21 14:26 34.206931 -109.784230 68 23303ft 266kts
26-Aug-21 14:27 34.235139 -109.701653 68 23348ft 265kts
26-Aug-21 14:28 34.263334 -109.618886 68 23351ft 267kts
26-Aug-21 14:29 34.291586 -109.535721 68 23328ft 268kts
26-Aug-21 14:30 34.319806 -109.452461 68 23306ft 268kts
26-Aug-21 14:31 34.348119 -109.368695 68 23284ft 269kts
26-Aug-21 14:32 34.376256 -109.285225 69 23258ft 268kts
26-Aug-21 14:33 34.404112 -109.202486 68 23232ft 257kts
26-Aug-21 14:34 34.429142 -109.125896 79 23228ft 232kts
26-Aug-21 14:35 34.441617 -109.054513 81 23226ft 198kts
26-Aug-21 14:36 34.453408 -108.984669 81 23246ft 232kts
26-Aug-21 14:37 34.466907 -108.904430 81 23254ft 250kts
26-Aug-21 14:38 34.480987 -108.820741 81 23273ft 257kts
26-Aug-21 14:39 34.495293 -108.735345 81 23285ft 259kts
26-Aug-21 14:40 34.509671 -108.649128 80 23289ft 263kts
26-Aug-21 14:41 34.524142 -108.561993 80 23294ft 264kts
26-Aug-21 14:42 34.538577 -108.474693 80 23302ft 265kts
26-Aug-21 14:43 34.553034 -108.386841 81 23296ft 266kts
26-Aug-21 14:44 34.567433 -108.298934 81 23292ft 266kts
26-Aug-21 14:45 34.581779 -108.210937 81 23292ft 266kts
26-Aug-21 14:46 34.596077 -108.122778 81 23173ft 266kts
26-Aug-21 14:47 34.610042 -108.036177 81 22348ft 262kts
26-Aug-21 14:48 34.624141 -107.948001 81 21250ft 273kts
26-Aug-21 14:49 34.638826 -107.855847 81 20061ft 278kts
26-Aug-21 14:50 34.653253 -107.765273 81 18863ft 271kts
26-Aug-21 14:51 34.677082 -107.679516 64 17656ft 270kts
26-Aug-21 14:52 34.711512 -107.599042 65 16461ft 268kts
26-Aug-21 14:53 34.719285 -107.510664 87 15250ft 263kts
26-Aug-21 14:54 34.724120 -107.422272 87 14051ft 261kts
26-Aug-21 14:55 34.728912 -107.334551 87 12854ft 260kts
26-Aug-21 14:56 34.733570 -107.248869 87 11645ft 244kts
26-Aug-21 14:57 34.737898 -107.168547 87 10446ft 240kts
26-Aug-21 14:58 34.742275 -107.084384 87 10073ft 250kts
26-Aug-21 14:59 34.746639 -106.999920 87 9861ft 255kts
26-Aug-21 15:00 34.750995 -106.916138 88 10052ft 247kts
26-Aug-21 15:01 34.755092 -106.837073 88 10032ft 215kts
26-Aug-21 15:02 34.774877 -106.775187 33 9995ft 200kts
26-Aug-21 15:03 34.826906 -106.779739 337 9999ft 197kts
26-Aug-21 15:04 34.876460 -106.800719 350 10301ft 188kts
26-Aug-21 15:05 34.920247 -106.770953 63 9842ft 195kts
26-Aug-21 15:06 34.949897 -106.716734 50 8118ft 198kts
26-Aug-21 15:07 34.989632 -106.670078 48 6627ft 143kts
26-Aug-21 15:08 35.015161 -106.635571 68 5772ft 136kts
26-Aug-21 15:09 35.030343 -106.593943 55 6568ft 138kts
26-Aug-21 15:10 35.047677 -106.601175 216 5753ft 126kts
26-Aug-21 15:11 35.033900 -106.617956 313 5311ft 3kts
26-Aug-21 15:12 35.034811 -106.618743 342 5311ft 0kts

Navigation Log

Ident Type
Flight plan parsing failed, navigation log unavailable